createdAt,value
2022-11-27T00:00:00.521Z,12.68
2022-11-27T00:02:27.502Z,13.02
2022-11-27T00:04:54.531Z,12.73
2022-11-27T00:07:21.545Z,13.10
2022-11-27T00:09:48.503Z,12.30
2022-11-27T00:12:15.377Z,13.13
2022-11-27T00:14:42.279Z,12.63
2022-11-27T00:17:09.183Z,14.38
2022-11-27T00:19:36.146Z,12.68
2022-11-27T00:22:02.997Z,13.95
2022-11-27T00:24:30.003Z,13.75
2022-11-27T00:26:56.971Z,14.02
2022-11-27T00:29:23.888Z,13.85
2022-11-27T00:31:50.764Z,14.55
2022-11-27T00:34:17.619Z,14.10
2022-11-27T00:36:48.022Z,14.07
2022-11-27T00:39:15.387Z,13.20
2022-11-27T00:41:42.311Z,13.32
2022-11-27T00:44:09.286Z,14.02
2022-11-27T00:46:36.517Z,14.77
2022-11-27T00:49:05.911Z,14.05
2022-11-27T00:51:32.889Z,15.00
2022-11-27T00:53:59.913Z,14.57
2022-11-27T00:56:30.634Z,15.15
2022-11-27T00:58:57.801Z,15.27
2022-11-27T01:01:30.454Z,14.60
2022-11-27T01:03:58.825Z,15.07
2022-11-27T01:06:27.416Z,15.05
2022-11-27T01:08:54.884Z,14.98
2022-11-27T01:11:27.476Z,15.57
2022-11-27T01:13:57.376Z,13.95
2022-11-27T01:16:25.992Z,14.18
2022-11-27T01:18:55.764Z,14.93
2022-11-27T01:21:22.651Z,15.82
2022-11-27T01:23:50.257Z,14.77
2022-11-27T01:26:18.085Z,14.13
2022-11-27T01:28:46.014Z,14.45
2022-11-27T01:31:21.795Z,14.63
2022-11-27T01:33:53.536Z,14.57
2022-11-27T01:36:20.855Z,15.38
2022-11-27T01:38:47.933Z,16.20
2022-11-27T01:41:22.414Z,14.30
2022-11-27T01:43:58.775Z,14.70
2022-11-27T01:46:53.578Z,15.55
2022-11-27T01:49:47.501Z,14.88
2022-11-27T01:52:26.137Z,13.68
2022-11-27T01:55:01.833Z,14.77
2022-11-27T01:57:36.377Z,14.38
2022-11-27T02:00:06.981Z,12.90
2022-11-27T02:02:40.029Z,13.43
2022-11-27T02:05:07.333Z,15.00
2022-11-27T02:07:34.760Z,14.80
2022-11-27T02:10:02.226Z,15.60
2022-11-27T02:12:44.918Z,14.70
2022-11-27T02:15:26.697Z,15.48
2022-11-27T02:18:27.638Z,14.55
2022-11-27T02:21:09.114Z,14.63
2022-11-27T02:23:42.197Z,14.65
2022-11-27T02:26:18.727Z,15.75
2022-11-27T02:28:54.773Z,15.30
2022-11-27T02:31:47.914Z,15.23
2022-11-27T02:34:24.143Z,14.68
2022-11-27T02:37:03.613Z,14.48
2022-11-27T02:39:37.694Z,13.93
2022-11-27T02:42:11.504Z,16.10
2022-11-27T02:44:44.548Z,13.90
2022-11-27T02:47:13.653Z,15.32
2022-11-27T02:49:43.255Z,13.95
2022-11-27T02:52:14.046Z,16.83
2022-11-27T02:54:43.648Z,15.55
2022-11-27T02:57:13.127Z,16.38
2022-11-27T02:59:43.038Z,17.35
2022-11-27T03:02:14.939Z,15.43
2022-11-27T03:04:55.625Z,14.75
2022-11-27T03:07:36.145Z,15.05
2022-11-27T03:10:10.272Z,15.20
2022-11-27T03:12:37.468Z,14.65
2022-11-27T03:15:06.590Z,15.98
2022-11-27T03:18:08.759Z,14.07
2022-11-27T03:20:41.402Z,15.68
2022-11-27T03:23:08.298Z,15.60
2022-11-27T03:25:35.306Z,14.50
2022-11-27T03:28:06.198Z,14.82
2022-11-27T03:30:33.150Z,15.40
2022-11-27T03:33:01.409Z,15.18
2022-11-27T03:35:31.418Z,14.98
2022-11-27T03:37:58.544Z,15.80
2022-11-27T03:40:34.302Z,15.57
2022-11-27T03:43:11.646Z,14.85
2022-11-27T03:45:49.335Z,15.63
2022-11-27T03:48:34.178Z,15.00
2022-11-27T03:51:05.806Z,16.05
2022-11-27T03:53:45.083Z,14.57
2022-11-27T03:56:42.373Z,16.55
2022-11-27T03:59:16.036Z,15.07
2022-11-27T04:01:43.055Z,15.57
2022-11-27T04:04:10.066Z,16.42
2022-11-27T04:06:36.972Z,16.55
2022-11-27T04:09:04.414Z,15.95
2022-11-27T04:11:31.310Z,15.13
2022-11-27T04:13:58.993Z,16.27
2022-11-27T04:16:25.931Z,16.58
2022-11-27T04:18:52.891Z,15.30
2022-11-27T04:21:19.766Z,15.98
2022-11-27T04:23:46.744Z,16.92
2022-11-27T04:26:13.702Z,16.55
2022-11-27T04:28:40.635Z,16.25
2022-11-27T04:31:07.598Z,16.25
2022-11-27T04:33:34.582Z,15.40
2022-11-27T04:36:01.442Z,16.25
2022-11-27T04:38:28.334Z,15.77
2022-11-27T04:40:55.238Z,16.48
2022-11-27T04:43:22.137Z,17.58
2022-11-27T04:45:48.986Z,18.52
2022-11-27T04:48:15.913Z,16.90
2022-11-27T04:50:42.815Z,16.73
2022-11-27T04:53:09.700Z,16.38
2022-11-27T04:55:36.675Z,16.67
2022-11-27T04:58:03.916Z,16.27
2022-11-27T05:00:30.893Z,16.50
2022-11-27T05:02:57.837Z,16.42
2022-11-27T05:05:24.762Z,15.35
2022-11-27T05:07:51.682Z,18.02
2022-11-27T05:10:18.665Z,16.23
2022-11-27T05:12:45.737Z,16.10
2022-11-27T05:15:12.626Z,17.15
2022-11-27T05:17:39.715Z,15.70
2022-11-27T05:20:07.847Z,17.45
2022-11-27T05:22:34.747Z,18.52
2022-11-27T05:25:01.710Z,18.05
2022-11-27T05:27:28.552Z,18.75
2022-11-27T05:29:55.450Z,18.08
2022-11-27T05:32:22.317Z,15.35
2022-11-27T05:34:49.798Z,16.52
2022-11-27T05:37:19.738Z,17.08
2022-11-27T05:39:47.163Z,16.45
2022-11-27T05:42:14.410Z,17.35
2022-11-27T05:44:41.365Z,16.92
2022-11-27T05:47:08.489Z,15.35
2022-11-27T05:49:35.443Z,18.13
2022-11-27T05:52:02.336Z,17.73
2022-11-27T05:54:29.225Z,17.58
2022-11-27T05:56:56.076Z,17.30
2022-11-27T05:59:22.982Z,17.45
2022-11-27T06:01:49.917Z,17.60
2022-11-27T06:04:16.888Z,18.15
2022-11-27T06:06:43.816Z,17.65
2022-11-27T06:09:13.203Z,18.60
2022-11-27T06:11:41.946Z,17.95
2022-11-27T06:14:10.356Z,17.88
2022-11-27T06:16:37.960Z,17.83
2022-11-27T06:19:05.003Z,17.73
2022-11-27T06:21:31.961Z,17.02
2022-11-27T06:23:59.492Z,16.92
2022-11-27T06:26:29.660Z,17.20
2022-11-27T06:28:58.209Z,17.17
2022-11-27T06:31:28.122Z,16.58
2022-11-27T06:33:55.937Z,16.90
2022-11-27T06:36:25.514Z,16.95
2022-11-27T06:38:52.374Z,16.63
2022-11-27T06:41:21.804Z,16.45
2022-11-27T06:43:48.954Z,15.90
2022-11-27T06:46:19.286Z,15.18
2022-11-27T06:48:47.517Z,14.35
2022-11-27T06:51:18.904Z,15.07
2022-11-27T06:53:45.929Z,13.88
2022-11-27T06:56:15.590Z,12.70
2022-11-27T06:58:43.107Z,13.80
2022-11-27T07:01:13.574Z,13.82
2022-11-27T07:03:41.095Z,12.27
2022-11-27T07:06:10.446Z,11.75
2022-11-27T07:08:37.415Z,11.95
2022-11-27T07:11:06.562Z,11.35
2022-11-27T07:13:33.894Z,11.95
2022-11-27T07:16:09.629Z,12.70
2022-11-27T07:18:42.242Z,10.73
2022-11-27T07:21:09.681Z,10.25
2022-11-27T07:23:37.788Z,11.55
2022-11-27T07:26:09.614Z,11.27
2022-11-27T07:28:36.659Z,10.40
2022-11-27T07:31:03.978Z,10.50
2022-11-27T07:33:30.913Z,11.13
2022-11-27T07:36:03.403Z,10.15
2022-11-27T07:38:30.315Z,9.48
2022-11-27T07:41:01.384Z,9.07
2022-11-27T07:43:29.057Z,8.70
2022-11-27T07:45:56.346Z,8.05
2022-11-27T07:48:23.539Z,8.05
2022-11-27T07:50:50.416Z,7.18
2022-11-27T07:53:17.502Z,7.25
2022-11-27T07:55:44.436Z,7.15
2022-11-27T07:58:11.479Z,6.72
2022-11-27T08:00:38.494Z,6.93
2022-11-27T08:03:05.584Z,7.28
2022-11-27T08:05:36.706Z,7.38
2022-11-27T08:08:04.965Z,7.00
2022-11-27T08:10:35.884Z,7.50
2022-11-27T08:13:02.889Z,6.35
2022-11-27T08:15:29.923Z,6.57
2022-11-27T08:17:57.657Z,6.72
2022-11-27T08:20:24.797Z,7.28
2022-11-27T08:22:51.697Z,7.10
2022-11-27T08:25:18.806Z,5.90
2022-11-27T08:27:48.248Z,6.50
2022-11-27T08:30:15.904Z,5.95
2022-11-27T08:32:43.803Z,5.82
2022-11-27T08:35:11.786Z,6.85
2022-11-27T08:37:38.827Z,6.10
2022-11-27T08:40:06.534Z,6.45
2022-11-27T08:42:33.431Z,5.25
2022-11-27T08:45:00.449Z,5.72
2022-11-27T08:47:27.311Z,6.15
2022-11-27T08:49:54.276Z,5.35
2022-11-27T08:52:21.924Z,5.30
2022-11-27T08:54:52.018Z,5.38
2022-11-27T08:57:23.064Z,5.50
2022-11-27T08:59:50.000Z,4.78
2022-11-27T09:02:16.884Z,5.50
2022-11-27T09:04:44.006Z,5.03
2022-11-27T09:07:14.440Z,5.20
2022-11-27T09:09:41.485Z,4.90
2022-11-27T09:12:08.715Z,5.60
2022-11-27T09:14:35.681Z,5.68
2022-11-27T09:17:02.702Z,4.93
2022-11-27T09:19:29.651Z,4.80
2022-11-27T09:21:56.534Z,4.45
2022-11-27T09:24:23.661Z,4.90
2022-11-27T09:26:50.548Z,4.78
2022-11-27T09:29:17.445Z,5.07
2022-11-27T09:31:44.364Z,4.57
2022-11-27T09:34:11.340Z,3.90
2022-11-27T09:36:38.253Z,3.95
2022-11-27T09:39:05.200Z,4.00
2022-11-27T09:41:39.767Z,4.13
2022-11-27T09:44:33.723Z,3.40
2022-11-27T09:47:10.210Z,3.58
2022-11-27T09:49:45.899Z,3.58
2022-11-27T09:52:21.157Z,3.42
2022-11-27T09:54:57.839Z,3.30
2022-11-27T09:57:33.146Z,3.45
2022-11-27T10:00:07.136Z,2.90
2022-11-27T10:02:35.566Z,2.92
2022-11-27T10:05:15.467Z,2.55
2022-11-27T10:07:51.976Z,2.95
2022-11-27T10:10:41.465Z,2.85
2022-11-27T10:13:22.132Z,3.00
2022-11-27T10:16:01.792Z,2.83
2022-11-27T10:18:33.758Z,2.67
2022-11-27T10:21:13.397Z,3.05
2022-11-27T10:24:12.933Z,2.65
2022-11-27T10:26:48.603Z,3.17
2022-11-27T10:29:36.378Z,2.70
2022-11-27T10:35:19.734Z,2.60
2022-11-27T10:37:51.787Z,2.83
2022-11-27T10:40:36.537Z,2.63
2022-11-27T10:43:24.082Z,2.30
2022-11-27T10:45:56.708Z,2.35
2022-11-27T10:48:24.058Z,2.45
2022-11-27T10:50:51.880Z,2.80
2022-11-27T10:53:18.761Z,2.55
2022-11-27T10:55:55.255Z,2.53
2022-11-27T10:58:37.367Z,2.92
2022-11-27T11:01:10.729Z,2.58
2022-11-27T11:03:37.931Z,2.65
2022-11-27T11:06:24.546Z,2.92
2022-11-27T11:09:13.218Z,2.65
2022-11-27T11:11:40.828Z,3.08
2022-11-27T11:14:23.008Z,2.25
2022-11-27T11:16:51.477Z,2.83
2022-11-27T11:19:34.456Z,3.17
2022-11-27T11:22:14.597Z,2.88
2022-11-27T11:24:52.620Z,3.33
2022-11-27T11:27:25.316Z,3.05
2022-11-27T11:29:55.549Z,3.22
2022-11-27T11:32:36.379Z,2.90
2022-11-27T11:35:34.849Z,3.80
2022-11-27T11:38:05.569Z,3.40
2022-11-27T11:40:37.653Z,3.03
2022-11-27T11:43:10.141Z,3.10
2022-11-27T11:45:46.289Z,3.58
2022-11-27T11:48:28.944Z,4.15
2022-11-27T11:51:17.733Z,3.60
2022-11-27T11:54:01.258Z,3.45
2022-11-27T11:56:38.098Z,3.97
2022-11-27T11:59:47.354Z,3.95
2022-11-27T12:02:39.448Z,3.85
2022-11-27T12:05:25.857Z,3.67
2022-11-27T12:07:59.895Z,4.40
2022-11-27T12:10:28.080Z,4.53
2022-11-27T12:13:22.238Z,3.28
2022-11-27T12:16:07.793Z,3.50
2022-11-27T12:21:16.696Z,4.47
2022-11-27T12:24:12.922Z,3.40
2022-11-27T12:27:13.127Z,3.53
2022-11-27T12:30:04.022Z,3.28
2022-11-27T12:32:46.981Z,3.53
2022-11-27T12:35:33.429Z,3.50
2022-11-27T12:38:44.427Z,3.65
2022-11-27T12:41:14.271Z,3.03
2022-11-27T12:43:48.095Z,2.25
2022-11-27T12:46:35.361Z,2.38
2022-11-27T12:49:10.519Z,2.80
2022-11-27T12:51:41.362Z,2.50
2022-11-27T12:54:29.975Z,2.83
2022-11-27T12:57:03.422Z,2.60
2022-11-27T12:59:58.649Z,2.85
2022-11-27T13:02:47.231Z,2.90
2022-11-27T13:05:16.319Z,3.20
2022-11-27T13:07:52.014Z,3.20
2022-11-27T13:10:47.516Z,3.22
2022-11-27T13:13:17.102Z,3.75
2022-11-27T13:15:58.901Z,3.08
2022-11-27T13:18:31.680Z,3.38
2022-11-27T13:21:01.341Z,3.42
2022-11-27T13:23:35.141Z,3.42
2022-11-27T13:26:12.090Z,3.97
2022-11-27T13:28:45.641Z,3.58
2022-11-27T13:31:26.295Z,3.55
2022-11-27T13:34:09.572Z,3.17
2022-11-27T13:36:42.843Z,3.53
2022-11-27T13:39:24.063Z,4.30
2022-11-27T13:42:02.771Z,4.00
2022-11-27T13:44:30.880Z,5.03
2022-11-27T13:47:05.130Z,3.90
2022-11-27T13:49:34.255Z,5.18
2022-11-27T13:52:10.813Z,4.45
2022-11-27T13:54:38.747Z,4.07
2022-11-27T13:57:17.804Z,5.07
2022-11-27T14:00:06.838Z,4.82
2022-11-27T14:02:51.015Z,4.72
2022-11-27T14:05:21.210Z,4.63
2022-11-27T14:07:51.579Z,3.40
2022-11-27T14:10:24.504Z,4.13
2022-11-27T14:12:54.454Z,3.92
2022-11-27T14:15:24.591Z,4.63
2022-11-27T14:18:04.431Z,3.60
2022-11-27T14:20:35.522Z,3.13
2022-11-27T14:23:17.758Z,3.83
2022-11-27T14:25:44.724Z,3.92
2022-11-27T14:28:21.991Z,3.42
2022-11-27T14:31:00.367Z,5.35
2022-11-27T14:33:31.194Z,5.30
2022-11-27T14:36:03.972Z,5.72
2022-11-27T14:38:33.317Z,5.90
2022-11-27T14:41:11.749Z,5.80
2022-11-27T14:43:38.709Z,5.22
2022-11-27T14:46:08.315Z,6.18
2022-11-27T14:48:49.927Z,5.78
2022-11-27T14:51:19.392Z,5.00
2022-11-27T14:53:47.974Z,4.88
2022-11-27T14:56:16.184Z,4.72
2022-11-27T14:58:52.588Z,5.03
2022-11-27T15:01:28.061Z,4.15
2022-11-27T15:04:06.149Z,6.25
2022-11-27T15:06:46.337Z,4.22
2022-11-27T15:09:34.994Z,5.38
2022-11-27T15:12:18.250Z,4.80
2022-11-27T15:14:54.530Z,4.78
2022-11-27T15:17:27.624Z,4.57
2022-11-27T15:19:56.784Z,5.00
2022-11-27T15:22:24.550Z,4.05
2022-11-27T15:25:03.810Z,4.80
2022-11-27T15:27:45.820Z,4.60
2022-11-27T15:30:16.941Z,4.18
2022-11-27T15:32:51.971Z,4.07
2022-11-27T15:35:23.577Z,5.85
2022-11-27T15:37:51.734Z,4.22
2022-11-27T15:40:37.474Z,4.50
2022-11-27T15:43:15.558Z,4.65
2022-11-27T15:45:44.527Z,4.72
2022-11-27T15:48:16.899Z,5.18
2022-11-27T15:50:50.074Z,5.63
2022-11-27T15:53:18.830Z,5.55
2022-11-27T15:55:45.842Z,5.85
2022-11-27T15:58:12.867Z,6.20
2022-11-27T16:00:40.724Z,6.43
2022-11-27T16:03:07.896Z,7.03
2022-11-27T16:05:34.766Z,6.05
2022-11-27T16:08:01.722Z,6.05
2022-11-27T16:10:28.666Z,5.25
2022-11-27T16:12:57.639Z,6.25
2022-11-27T16:15:30.037Z,6.78
2022-11-27T16:17:59.741Z,6.60
2022-11-27T16:20:27.070Z,7.07
2022-11-27T16:22:54.241Z,7.10
2022-11-27T16:25:21.157Z,8.63
2022-11-27T16:27:48.089Z,6.70
2022-11-27T16:30:15.217Z,7.15
2022-11-27T16:32:42.325Z,7.60
2022-11-27T16:35:09.757Z,7.88
2022-11-27T16:37:36.825Z,9.48
2022-11-27T16:40:04.091Z,9.77
2022-11-27T16:42:31.602Z,10.98
2022-11-27T16:44:58.703Z,11.38
2022-11-27T16:47:32.149Z,10.82
2022-11-27T16:50:01.138Z,11.20
2022-11-27T16:52:28.740Z,11.48
2022-11-27T16:54:56.296Z,11.45
2022-11-27T16:57:23.659Z,11.55
2022-11-27T16:59:50.967Z,11.63
2022-11-27T17:02:19.476Z,12.45
2022-11-27T17:04:46.361Z,12.07
2022-11-27T17:07:13.320Z,12.52
2022-11-27T17:09:42.248Z,12.50
2022-11-27T17:12:09.199Z,11.77
2022-11-27T17:14:37.136Z,12.02
2022-11-27T17:17:05.811Z,11.80
2022-11-27T17:19:32.638Z,13.13
2022-11-27T17:22:00.367Z,12.10
2022-11-27T17:24:29.003Z,12.93
2022-11-27T17:26:56.256Z,11.98
2022-11-27T17:29:33.543Z,13.73
2022-11-27T17:32:02.830Z,13.38
2022-11-27T17:34:30.190Z,12.68
2022-11-27T17:36:58.766Z,13.38
2022-11-27T17:39:26.662Z,13.68
2022-11-27T17:41:53.574Z,14.10
2022-11-27T17:44:20.776Z,14.23
2022-11-27T17:46:50.191Z,14.48
2022-11-27T17:49:19.635Z,13.85
2022-11-27T17:51:48.898Z,13.48
2022-11-27T17:54:16.204Z,14.43
2022-11-27T17:56:43.427Z,14.40
2022-11-27T17:59:10.838Z,13.35
2022-11-27T18:01:38.998Z,14.20
2022-11-27T18:04:06.126Z,14.35
2022-11-27T18:06:33.664Z,14.68
2022-11-27T18:09:01.233Z,14.80
2022-11-27T18:11:31.059Z,15.10
2022-11-27T18:14:00.449Z,15.02
2022-11-27T18:16:32.008Z,14.70
2022-11-27T18:19:00.084Z,15.50
2022-11-27T18:21:28.807Z,14.52
2022-11-27T18:29:30.365Z,14.55
2022-11-27T18:31:57.349Z,14.68
2022-11-27T18:34:24.342Z,13.57
2022-11-27T18:36:51.348Z,14.15
2022-11-27T18:39:18.666Z,14.80
2022-11-27T18:41:45.576Z,15.27
2022-11-27T18:44:12.569Z,14.95
2022-11-27T18:46:39.602Z,13.75
2022-11-27T18:49:06.768Z,14.13
2022-11-27T18:51:33.682Z,15.15
2022-11-27T18:54:01.086Z,14.98
2022-11-27T18:56:32.134Z,14.63
2022-11-27T18:59:07.079Z,14.88
2022-11-27T19:01:41.456Z,15.23
2022-11-27T19:04:09.543Z,15.23
2022-11-27T19:06:37.853Z,15.85
2022-11-27T19:09:06.291Z,15.90
2022-11-27T19:11:34.167Z,15.20
2022-11-27T19:14:01.888Z,15.13
2022-11-27T19:16:35.528Z,14.73
2022-11-27T19:19:05.024Z,14.38
2022-11-27T19:21:34.548Z,15.00
2022-11-27T19:24:03.732Z,15.13
2022-11-27T19:26:33.915Z,14.10
2022-11-27T19:29:04.190Z,13.75
2022-11-27T19:31:33.209Z,14.75
2022-11-27T19:34:02.463Z,13.88
2022-11-27T19:36:31.545Z,13.32
2022-11-27T19:39:06.509Z,15.13
2022-11-27T19:41:34.129Z,13.82
2022-11-27T19:44:05.646Z,13.43
2022-11-27T19:46:37.907Z,13.73
2022-11-27T19:49:08.220Z,14.45
2022-11-27T19:51:37.553Z,13.88
2022-11-27T19:54:10.067Z,15.35
2022-11-27T19:56:40.190Z,13.85
2022-11-27T19:59:08.039Z,14.10
2022-11-27T20:01:35.477Z,13.30
2022-11-27T20:04:04.128Z,12.85
2022-11-27T20:06:31.809Z,13.98
2022-11-27T20:09:02.045Z,12.57
2022-11-27T20:11:34.642Z,13.65
2022-11-27T20:14:05.890Z,13.55
2022-11-27T20:16:34.781Z,13.23
2022-11-27T20:19:05.717Z,13.20
2022-11-27T20:21:34.725Z,12.93
2022-11-27T20:24:03.225Z,13.00
2022-11-27T20:26:30.810Z,13.20
2022-11-27T20:28:59.086Z,12.23
2022-11-27T20:31:37.730Z,12.20
2022-11-27T20:34:09.065Z,12.35
2022-11-27T20:36:39.326Z,13.50
2022-11-27T20:39:06.676Z,13.32
2022-11-27T20:41:33.640Z,13.20
2022-11-27T20:44:02.511Z,13.85
2022-11-27T20:46:32.061Z,13.48
2022-11-27T20:48:59.652Z,11.45
2022-11-27T20:51:33.444Z,12.68
2022-11-27T20:54:07.165Z,12.90
2022-11-27T20:56:34.353Z,12.45
2022-11-27T20:59:01.574Z,12.70
2022-11-27T21:01:34.820Z,12.70
2022-11-27T21:04:09.342Z,11.57
2022-11-27T21:06:43.420Z,12.93
2022-11-27T21:09:13.959Z,12.80
2022-11-27T21:11:41.406Z,12.90
2022-11-27T21:14:11.169Z,11.93
2022-11-27T21:16:42.118Z,11.68
2022-11-27T21:19:15.685Z,11.98
2022-11-27T21:21:42.773Z,11.98
2022-11-27T21:24:10.074Z,11.40
2022-11-27T21:26:37.200Z,10.90
2022-11-27T21:29:04.494Z,11.80
2022-11-27T21:31:37.251Z,11.35
2022-11-27T21:34:07.066Z,11.73
2022-11-27T21:36:37.092Z,11.55
2022-11-27T21:39:08.210Z,12.25
2022-11-27T21:41:36.367Z,11.77
2022-11-27T21:44:05.422Z,11.25
2022-11-27T21:46:33.852Z,12.82
2022-11-27T21:49:04.597Z,10.60
2022-11-27T21:51:31.748Z,10.20
2022-11-27T21:53:59.632Z,10.90
2022-11-27T21:56:28.871Z,11.07
2022-11-27T21:58:56.197Z,12.30
2022-11-27T22:01:24.866Z,10.63
2022-11-27T22:03:56.613Z,11.48
2022-11-27T22:06:27.039Z,10.73
2022-11-27T22:08:56.847Z,11.90
2022-11-27T22:11:30.425Z,11.05
2022-11-27T22:14:00.670Z,10.10
2022-11-27T22:16:33.505Z,9.88
2022-11-27T22:19:01.352Z,11.65
2022-11-27T22:21:30.198Z,11.13
2022-11-27T22:23:58.548Z,9.82
2022-11-27T22:26:25.863Z,10.80
2022-11-27T22:28:53.555Z,9.88
2022-11-27T22:31:24.108Z,10.18
2022-11-27T22:33:51.541Z,10.40
2022-11-27T22:36:20.701Z,10.38
2022-11-27T22:38:49.407Z,10.45
2022-11-27T22:41:16.975Z,9.95
2022-11-27T22:43:45.046Z,9.27
2022-11-27T22:46:35.597Z,9.35
2022-11-27T22:49:06.815Z,9.73
2022-11-27T22:51:35.796Z,8.88
2022-11-27T22:54:04.464Z,9.55
2022-11-27T22:56:36.220Z,8.50
2022-11-27T22:59:31.005Z,9.15
2022-11-27T23:01:52.897Z,8.35
2022-11-27T23:04:19.855Z,8.77
2022-11-27T23:06:48.555Z,8.88
2022-11-27T23:09:18.093Z,8.40
2022-11-27T23:11:45.497Z,7.65
2022-11-27T23:14:12.775Z,9.48
2022-11-27T23:16:40.165Z,7.57
2022-11-27T23:19:07.344Z,8.38
2022-11-27T23:21:37.632Z,8.73
2022-11-27T23:24:06.267Z,7.93
2022-11-27T23:26:33.137Z,7.90
2022-11-27T23:29:00.050Z,8.07
2022-11-27T23:31:31.224Z,7.50
2022-11-27T23:34:01.320Z,8.68
2022-11-27T23:36:29.380Z,8.25
2022-11-27T23:38:56.831Z,7.30
2022-11-27T23:41:25.145Z,7.40
2022-11-27T23:43:53.679Z,7.25
2022-11-27T23:46:22.801Z,7.55
2022-11-27T23:48:49.936Z,7.85
2022-11-27T23:51:18.658Z,7.93
2022-11-27T23:53:45.958Z,6.15
2022-11-27T23:56:16.370Z,7.60
2022-11-27T23:58:47.248Z,7.68
